sensor_id;sensor_type;location;lat;lon;timestamp;temperature;humidity
15879;DHT22;61999;51.514;14.614;2023-03-01T00:01:40;-4.70;43.70
15879;DHT22;61999;51.514;14.614;2023-03-01T00:04:09;-4.80;43.70
15879;DHT22;61999;51.514;14.614;2023-03-01T00:06:37;-4.80;43.90
15879;DHT22;61999;51.514;14.614;2023-03-01T00:09:05;-4.90;43.90
15879;DHT22;61999;51.514;14.614;2023-03-01T00:11:34;-4.90;44.00
15879;DHT22;61999;51.514;14.614;2023-03-01T00:14:03;-4.90;44.10
15879;DHT22;61999;51.514;14.614;2023-03-01T00:16:34;-4.90;44.00
15879;DHT22;61999;51.514;14.614;2023-03-01T00:19:06;-5.00;44.20
15879;DHT22;61999;51.514;14.614;2023-03-01T00:21:36;-5.00;44.20
15879;DHT22;61999;51.514;14.614;2023-03-01T00:24:04;-5.00;44.20
15879;DHT22;61999;51.514;14.614;2023-03-01T00:26:33;-5.10;44.10
15879;DHT22;61999;51.514;14.614;2023-03-01T00:29:01;-5.10;44.10
15879;DHT22;61999;51.514;14.614;2023-03-01T00:31:31;-5.10;44.20
15879;DHT22;61999;51.514;14.614;2023-03-01T00:34:02;-5.20;44.20
15879;DHT22;61999;51.514;14.614;2023-03-01T00:36:33;-5.20;44.30
15879;DHT22;61999;51.514;14.614;2023-03-01T00:39:05;-5.20;44.20
15879;DHT22;61999;51.514;14.614;2023-03-01T00:41:35;-5.30;44.30
15879;DHT22;61999;51.514;14.614;2023-03-01T00:44:03;-5.30;44.30
15879;DHT22;61999;51.514;14.614;2023-03-01T00:46:31;-5.30;44.30
15879;DHT22;61999;51.514;14.614;2023-03-01T00:49:00;-5.40;44.20
15879;DHT22;61999;51.514;14.614;2023-03-01T00:51:31;-5.40;44.40
15879;DHT22;61999;51.514;14.614;2023-03-01T00:54:01;-5.40;44.60
15879;DHT22;61999;51.514;14.614;2023-03-01T00:56:30;-5.40;44.80
15879;DHT22;61999;51.514;14.614;2023-03-01T00:58:58;-5.40;44.80
15879;DHT22;61999;51.514;14.614;2023-03-01T01:01:28;-5.40;44.70
15879;DHT22;61999;51.514;14.614;2023-03-01T01:03:59;-5.40;44.70
15879;DHT22;61999;51.514;14.614;2023-03-01T01:06:30;-5.40;44.70
15879;DHT22;61999;51.514;14.614;2023-03-01T01:09:02;-5.50;44.70
15879;DHT22;61999;51.514;14.614;2023-03-01T01:11:31;-5.50;44.70
15879;DHT22;61999;51.514;14.614;2023-03-01T01:13:59;-5.50;44.80
15879;DHT22;61999;51.514;14.614;2023-03-01T01:16:27;-5.50;44.70
15879;DHT22;61999;51.514;14.614;2023-03-01T01:18:56;-5.50;44.80
15879;DHT22;61999;51.514;14.614;2023-03-01T01:21:25;-5.60;44.80
15879;DHT22;61999;51.514;14.614;2023-03-01T01:23:54;-5.60;45.00
15879;DHT22;61999;51.514;14.614;2023-03-01T01:26:25;-5.60;45.00
15879;DHT22;61999;51.514;14.614;2023-03-01T01:28:55;-5.60;44.90
15879;DHT22;61999;51.514;14.614;2023-03-01T01:31:24;-5.60;44.90
15879;DHT22;61999;51.514;14.614;2023-03-01T01:33:53;-5.60;45.00
15879;DHT22;61999;51.514;14.614;2023-03-01T01:36:22;-5.60;45.10
15879;DHT22;61999;51.514;14.614;2023-03-01T01:38:50;-5.60;45.20
15879;DHT22;61999;51.514;14.614;2023-03-01T01:41:19;-5.60;45.20
15879;DHT22;61999;51.514;14.614;2023-03-01T01:44:11;-5.70;45.20
15879;DHT22;61999;51.514;14.614;2023-03-01T01:46:43;-5.70;45.40
15879;DHT22;61999;51.514;14.614;2023-03-01T01:49:23;-5.70;45.40
15879;DHT22;61999;51.514;14.614;2023-03-01T01:52:00;-5.70;45.30
15879;DHT22;61999;51.514;14.614;2023-03-01T01:54:40;-5.80;45.30
15879;DHT22;61999;51.514;14.614;2023-03-01T01:57:16;-5.80;45.20
15879;DHT22;61999;51.514;14.614;2023-03-01T01:59:51;-5.80;45.40
15879;DHT22;61999;51.514;14.614;2023-03-01T02:02:21;-5.80;45.40
15879;DHT22;61999;51.514;14.614;2023-03-01T02:04:53;-5.80;45.30
15879;DHT22;61999;51.514;14.614;2023-03-01T02:07:30;-5.90;45.30
15879;DHT22;61999;51.514;14.614;2023-03-01T02:09:58;-5.90;45.40
15879;DHT22;61999;51.514;14.614;2023-03-01T02:12:26;-5.90;45.50
15879;DHT22;61999;51.514;14.614;2023-03-01T02:14:56;-5.90;45.50
15879;DHT22;61999;51.514;14.614;2023-03-01T02:17:24;-6.00;45.50
15879;DHT22;61999;51.514;14.614;2023-03-01T02:20:01;-5.90;45.90
15879;DHT22;61999;51.514;14.614;2023-03-01T02:22:37;-5.90;46.10
15879;DHT22;61999;51.514;14.614;2023-03-01T02:25:19;-6.00;45.80
15879;DHT22;61999;51.514;14.614;2023-03-01T02:27:56;-6.00;45.70
15879;DHT22;61999;51.514;14.614;2023-03-01T02:30:29;-6.10;45.70
15879;DHT22;61999;51.514;14.614;2023-03-01T02:33:00;-6.10;45.70
15879;DHT22;61999;51.514;14.614;2023-03-01T02:35:32;-6.10;45.70
15879;DHT22;61999;51.514;14.614;2023-03-01T02:38:06;-6.20;45.70
15879;DHT22;61999;51.514;14.614;2023-03-01T02:40:38;-6.20;45.70
15879;DHT22;61999;51.514;14.614;2023-03-01T02:43:10;-6.20;45.80
15879;DHT22;61999;51.514;14.614;2023-03-01T02:45:48;-6.30;45.70
15879;DHT22;61999;51.514;14.614;2023-03-01T02:48:18;-6.20;45.90
15879;DHT22;61999;51.514;14.614;2023-03-01T02:50:55;-6.20;45.90
15879;DHT22;61999;51.514;14.614;2023-03-01T02:53:39;-6.30;45.80
15879;DHT22;61999;51.514;14.614;2023-03-01T02:56:13;-6.30;45.80
15879;DHT22;61999;51.514;14.614;2023-03-01T02:58:42;-6.40;45.70
15879;DHT22;61999;51.514;14.614;2023-03-01T03:01:15;-6.40;45.70
15879;DHT22;61999;51.514;14.614;2023-03-01T03:03:43;-6.40;45.80
15879;DHT22;61999;51.514;14.614;2023-03-01T03:06:12;-6.40;45.90
15879;DHT22;61999;51.514;14.614;2023-03-01T03:08:40;-6.40;45.90
15879;DHT22;61999;51.514;14.614;2023-03-01T03:11:08;-6.50;45.80
15879;DHT22;61999;51.514;14.614;2023-03-01T03:13:37;-6.40;46.20
15879;DHT22;61999;51.514;14.614;2023-03-01T03:16:16;-6.40;46.10
15879;DHT22;61999;51.514;14.614;2023-03-01T03:18:44;-6.50;46.10
15879;DHT22;61999;51.514;14.614;2023-03-01T03:21:13;-6.50;46.00
15879;DHT22;61999;51.514;14.614;2023-03-01T03:23:43;-6.50;46.10
15879;DHT22;61999;51.514;14.614;2023-03-01T03:26:11;-6.50;46.10
15879;DHT22;61999;51.514;14.614;2023-03-01T03:28:41;-6.50;46.10
15879;DHT22;61999;51.514;14.614;2023-03-01T03:31:09;-6.60;46.10
15879;DHT22;61999;51.514;14.614;2023-03-01T03:33:39;-6.60;46.10
15879;DHT22;61999;51.514;14.614;2023-03-01T03:36:07;-6.60;46.10
15879;DHT22;61999;51.514;14.614;2023-03-01T03:38:39;-6.60;46.30
15879;DHT22;61999;51.514;14.614;2023-03-01T03:41:07;-6.60;46.50
15879;DHT22;61999;51.514;14.614;2023-03-01T03:43:37;-6.60;46.30
15879;DHT22;61999;51.514;14.614;2023-03-01T03:46:07;-6.70;46.30
15879;DHT22;61999;51.514;14.614;2023-03-01T03:48:37;-6.70;46.30
15879;DHT22;61999;51.514;14.614;2023-03-01T03:51:10;-6.70;46.40
15879;DHT22;61999;51.514;14.614;2023-03-01T03:53:40;-6.70;46.60
15879;DHT22;61999;51.514;14.614;2023-03-01T03:56:09;-6.80;46.40
15879;DHT22;61999;51.514;14.614;2023-03-01T03:58:37;-6.80;46.30
15879;DHT22;61999;51.514;14.614;2023-03-01T04:01:05;-6.80;46.40
15879;DHT22;61999;51.514;14.614;2023-03-01T04:03:33;-6.90;46.30
15879;DHT22;61999;51.514;14.614;2023-03-01T04:06:04;-6.90;46.30
15879;DHT22;61999;51.514;14.614;2023-03-01T04:08:32;-6.90;46.40
15879;DHT22;61999;51.514;14.614;2023-03-01T04:11:02;-6.90;46.50
15879;DHT22;61999;51.514;14.614;2023-03-01T04:13:53;-7.00;46.50
15879;DHT22;61999;51.514;14.614;2023-03-01T04:16:24;-7.00;46.50
15879;DHT22;61999;51.514;14.614;2023-03-01T04:18:52;-6.90;46.70
15879;DHT22;61999;51.514;14.614;2023-03-01T04:21:22;-7.00;46.80
15879;DHT22;61999;51.514;14.614;2023-03-01T04:23:50;-7.00;46.60
15879;DHT22;61999;51.514;14.614;2023-03-01T04:26:19;-7.00;46.60
15879;DHT22;61999;51.514;14.614;2023-03-01T04:28:47;-7.00;46.60
15879;DHT22;61999;51.514;14.614;2023-03-01T04:31:18;-7.00;46.70
15879;DHT22;61999;51.514;14.614;2023-03-01T04:33:54;-7.00;46.70
15879;DHT22;61999;51.514;14.614;2023-03-01T04:36:26;-7.00;46.80
15879;DHT22;61999;51.514;14.614;2023-03-01T04:38:55;-7.00;47.00
15879;DHT22;61999;51.514;14.614;2023-03-01T04:41:25;-7.00;47.00
15879;DHT22;61999;51.514;14.614;2023-03-01T04:43:53;-7.10;46.90
15879;DHT22;61999;51.514;14.614;2023-03-01T04:46:21;-7.10;47.10
15879;DHT22;61999;51.514;14.614;2023-03-01T04:48:49;-7.10;47.00
15879;DHT22;61999;51.514;14.614;2023-03-01T04:51:18;-7.10;46.90
15879;DHT22;61999;51.514;14.614;2023-03-01T04:53:47;-7.20;46.90
15879;DHT22;61999;51.514;14.614;2023-03-01T04:56:22;-7.20;47.10
15879;DHT22;61999;51.514;14.614;2023-03-01T04:58:53;-7.10;47.20
15879;DHT22;61999;51.514;14.614;2023-03-01T05:01:21;-7.20;47.10
15879;DHT22;61999;51.514;14.614;2023-03-01T05:03:51;-7.20;47.10
15879;DHT22;61999;51.514;14.614;2023-03-01T05:06:20;-7.20;47.10
15879;DHT22;61999;51.514;14.614;2023-03-01T05:08:50;-7.30;47.10
15879;DHT22;61999;51.514;14.614;2023-03-01T05:11:19;-7.30;47.10
15879;DHT22;61999;51.514;14.614;2023-03-01T05:13:50;-7.30;47.10
15879;DHT22;61999;51.514;14.614;2023-03-01T05:16:22;-7.30;47.20
15879;DHT22;61999;51.514;14.614;2023-03-01T05:18:54;-7.30;47.30
15879;DHT22;61999;51.514;14.614;2023-03-01T05:21:24;-7.30;47.20
15879;DHT22;61999;51.514;14.614;2023-03-01T05:23:54;-7.30;47.30
15879;DHT22;61999;51.514;14.614;2023-03-01T05:26:23;-7.30;47.30
15879;DHT22;61999;51.514;14.614;2023-03-01T05:28:55;-7.30;47.30
15879;DHT22;61999;51.514;14.614;2023-03-01T05:31:35;-7.30;47.30
15879;DHT22;61999;51.514;14.614;2023-03-01T05:34:04;-7.30;47.30
15879;DHT22;61999;51.514;14.614;2023-03-01T05:36:33;-7.40;47.20
15879;DHT22;61999;51.514;14.614;2023-03-01T05:39:02;-7.40;47.20
15879;DHT22;61999;51.514;14.614;2023-03-01T05:41:31;-7.40;47.30
15879;DHT22;61999;51.514;14.614;2023-03-01T05:44:01;-7.40;47.30
15879;DHT22;61999;51.514;14.614;2023-03-01T05:46:31;-7.40;47.40
15879;DHT22;61999;51.514;14.614;2023-03-01T05:48:59;-7.40;47.30
15879;DHT22;61999;51.514;14.614;2023-03-01T05:51:27;-7.50;47.40
15879;DHT22;61999;51.514;14.614;2023-03-01T05:53:55;-7.50;47.40
15879;DHT22;61999;51.514;14.614;2023-03-01T05:56:25;-7.50;47.30
15879;DHT22;61999;51.514;14.614;2023-03-01T05:58:53;-7.50;47.40
15879;DHT22;61999;51.514;14.614;2023-03-01T06:01:22;-7.50;47.40
15879;DHT22;61999;51.514;14.614;2023-03-01T06:03:49;-7.60;47.40
15879;DHT22;61999;51.514;14.614;2023-03-01T06:06:17;-7.60;47.40
15879;DHT22;61999;51.514;14.614;2023-03-01T06:08:45;-7.60;47.50
15879;DHT22;61999;51.514;14.614;2023-03-01T06:11:13;-7.60;47.60
15879;DHT22;61999;51.514;14.614;2023-03-01T06:13:43;-7.60;47.60
15879;DHT22;61999;51.514;14.614;2023-03-01T06:16:12;-7.50;47.70
15879;DHT22;61999;51.514;14.614;2023-03-01T06:18:42;-7.50;47.70
15879;DHT22;61999;51.514;14.614;2023-03-01T06:21:10;-7.50;47.70
15879;DHT22;61999;51.514;14.614;2023-03-01T06:23:38;-7.50;47.80
15879;DHT22;61999;51.514;14.614;2023-03-01T06:26:07;-7.50;47.90
15879;DHT22;61999;51.514;14.614;2023-03-01T06:28:36;-7.40;48.10
15879;DHT22;61999;51.514;14.614;2023-03-01T06:31:05;-7.40;48.10
15879;DHT22;61999;51.514;14.614;2023-03-01T06:33:35;-7.40;48.10
15879;DHT22;61999;51.514;14.614;2023-03-01T06:36:04;-7.30;48.20
15879;DHT22;61999;51.514;14.614;2023-03-01T06:38:33;-7.30;48.20
15879;DHT22;61999;51.514;14.614;2023-03-01T06:41:01;-7.30;48.40
15879;DHT22;61999;51.514;14.614;2023-03-01T06:43:29;-7.20;48.60
15879;DHT22;61999;51.514;14.614;2023-03-01T06:45:57;-7.10;48.90
15879;DHT22;61999;51.514;14.614;2023-03-01T06:48:27;-7.00;49.00
15879;DHT22;61999;51.514;14.614;2023-03-01T06:50:58;-6.90;49.20
15879;DHT22;61999;51.514;14.614;2023-03-01T06:53:27;-6.80;49.50
15879;DHT22;61999;51.514;14.614;2023-03-01T06:55:55;-6.70;49.70
15879;DHT22;61999;51.514;14.614;2023-03-01T06:58:23;-6.60;50.60
15879;DHT22;61999;51.514;14.614;2023-03-01T07:00:51;-6.40;50.00
15879;DHT22;61999;51.514;14.614;2023-03-01T07:03:19;-6.30;50.10
15879;DHT22;61999;51.514;14.614;2023-03-01T07:05:49;-6.10;50.30
15879;DHT22;61999;51.514;14.614;2023-03-01T07:08:19;-6.00;50.50
15879;DHT22;61999;51.514;14.614;2023-03-01T07:10:47;-5.80;50.60
15879;DHT22;61999;51.514;14.614;2023-03-01T07:13:17;-5.60;50.70
15879;DHT22;61999;51.514;14.614;2023-03-01T07:15:45;-5.40;50.80
15879;DHT22;61999;51.514;14.614;2023-03-01T07:18:13;-5.20;50.90
15879;DHT22;61999;51.514;14.614;2023-03-01T07:20:41;-5.00;51.00
15879;DHT22;61999;51.514;14.614;2023-03-01T07:23:11;-4.80;51.20
15879;DHT22;61999;51.514;14.614;2023-03-01T07:25:39;-4.60;51.80
15879;DHT22;61999;51.514;14.614;2023-03-01T07:28:07;-4.40;52.70
15879;DHT22;61999;51.514;14.614;2023-03-01T07:30:35;-4.20;51.70
15879;DHT22;61999;51.514;14.614;2023-03-01T07:33:03;-4.00;51.50
15879;DHT22;61999;51.514;14.614;2023-03-01T07:35:31;-3.80;51.40
15879;DHT22;61999;51.514;14.614;2023-03-01T07:38:00;-3.60;51.40
15879;DHT22;61999;51.514;14.614;2023-03-01T07:40:29;-3.40;51.30
15879;DHT22;61999;51.514;14.614;2023-03-01T07:42:58;-3.10;51.50
15879;DHT22;61999;51.514;14.614;2023-03-01T07:45:28;-2.90;51.30
15879;DHT22;61999;51.514;14.614;2023-03-01T07:47:56;-2.70;52.00
15879;DHT22;61999;51.514;14.614;2023-03-01T07:50:24;-2.50;51.50
15879;DHT22;61999;51.514;14.614;2023-03-01T07:52:52;-2.30;51.40
15879;DHT22;61999;51.514;14.614;2023-03-01T07:55:20;-2.00;51.30
15879;DHT22;61999;51.514;14.614;2023-03-01T07:57:49;-1.80;51.10
15879;DHT22;61999;51.514;14.614;2023-03-01T08:00:18;-1.60;51.20
15879;DHT22;61999;51.514;14.614;2023-03-01T08:02:46;-1.30;51.20
15879;DHT22;61999;51.514;14.614;2023-03-01T08:05:15;-1.00;51.10
15879;DHT22;61999;51.514;14.614;2023-03-01T08:07:43;-0.80;50.90
15879;DHT22;61999;51.514;14.614;2023-03-01T08:10:11;-0.60;50.00
15879;DHT22;61999;51.514;14.614;2023-03-01T08:12:39;-0.40;49.90
15879;DHT22;61999;51.514;14.614;2023-03-01T08:15:10;-0.30;48.00
15879;DHT22;61999;51.514;14.614;2023-03-01T08:17:38;-0.20;47.90
15879;DHT22;61999;51.514;14.614;2023-03-01T08:20:07;0.00;48.60
15879;DHT22;61999;51.514;14.614;2023-03-01T08:22:38;0.20;48.80
15879;DHT22;61999;51.514;14.614;2023-03-01T08:25:07;0.40;48.90
15879;DHT22;61999;51.514;14.614;2023-03-01T08:27:35;0.70;49.10
15879;DHT22;61999;51.514;14.614;2023-03-01T08:30:04;1.00;49.40
15879;DHT22;61999;51.514;14.614;2023-03-01T08:32:37;1.20;46.60
15879;DHT22;61999;51.514;14.614;2023-03-01T08:35:07;1.40;46.70
15879;DHT22;61999;51.514;14.614;2023-03-01T08:37:35;1.70;47.20
15879;DHT22;61999;51.514;14.614;2023-03-01T08:40:04;2.00;46.40
15879;DHT22;61999;51.514;14.614;2023-03-01T08:42:36;2.10;45.90
15879;DHT22;61999;51.514;14.614;2023-03-01T08:45:05;2.40;46.30
15879;DHT22;61999;51.514;14.614;2023-03-01T08:47:34;2.70;45.80
15879;DHT22;61999;51.514;14.614;2023-03-01T08:50:04;2.90;45.90
15879;DHT22;61999;51.514;14.614;2023-03-01T08:52:33;3.20;45.70
15879;DHT22;61999;51.514;14.614;2023-03-01T08:55:01;3.40;41.40
15879;DHT22;61999;51.514;14.614;2023-03-01T08:57:29;3.40;40.30
15879;DHT22;61999;51.514;14.614;2023-03-01T08:59:57;3.60;43.30
15879;DHT22;61999;51.514;14.614;2023-03-01T09:02:25;3.80;39.80
15879;DHT22;61999;51.514;14.614;2023-03-01T09:04:54;4.00;42.90
15879;DHT22;61999;51.514;14.614;2023-03-01T09:07:23;4.20;40.80
15879;DHT22;61999;51.514;14.614;2023-03-01T09:09:54;4.40;38.70
15879;DHT22;61999;51.514;14.614;2023-03-01T09:12:22;4.60;41.30
15879;DHT22;61999;51.514;14.614;2023-03-01T09:14:51;4.90;41.50
15879;DHT22;61999;51.514;14.614;2023-03-01T09:17:19;5.20;42.60
15879;DHT22;61999;51.514;14.614;2023-03-01T09:19:48;5.60;40.70
15879;DHT22;61999;51.514;14.614;2023-03-01T09:22:16;5.90;40.60
15879;DHT22;61999;51.514;14.614;2023-03-01T09:24:45;6.30;39.70
15879;DHT22;61999;51.514;14.614;2023-03-01T09:27:27;6.60;40.20
15879;DHT22;61999;51.514;14.614;2023-03-01T09:29:55;6.90;38.70
15879;DHT22;61999;51.514;14.614;2023-03-01T09:32:23;7.10;38.80
15879;DHT22;61999;51.514;14.614;2023-03-01T09:34:51;7.40;38.70
15879;DHT22;61999;51.514;14.614;2023-03-01T09:37:31;7.70;36.70
15879;DHT22;61999;51.514;14.614;2023-03-01T09:40:02;7.90;36.90
15879;DHT22;61999;51.514;14.614;2023-03-01T09:42:32;8.10;35.60
15879;DHT22;61999;51.514;14.614;2023-03-01T09:45:04;8.20;36.90
15879;DHT22;61999;51.514;14.614;2023-03-01T09:47:35;8.40;36.60
15879;DHT22;61999;51.514;14.614;2023-03-01T09:50:09;8.70;36.30
15879;DHT22;61999;51.514;14.614;2023-03-01T09:52:43;8.90;37.00
15879;DHT22;61999;51.514;14.614;2023-03-01T09:55:20;9.10;33.90
15879;DHT22;61999;51.514;14.614;2023-03-01T09:57:55;9.40;35.70
15879;DHT22;61999;51.514;14.614;2023-03-01T10:00:36;9.60;35.70
15879;DHT22;61999;51.514;14.614;2023-03-01T10:03:13;9.90;35.40
15879;DHT22;61999;51.514;14.614;2023-03-01T10:05:52;10.10;31.90
15879;DHT22;61999;51.514;14.614;2023-03-01T10:08:31;10.20;32.00
15879;DHT22;61999;51.514;14.614;2023-03-01T10:11:18;10.50;33.70
15879;DHT22;61999;51.514;14.614;2023-03-01T10:13:55;10.70;33.20
15879;DHT22;61999;51.514;14.614;2023-03-01T10:16:37;11.00;33.90
15879;DHT22;61999;51.514;14.614;2023-03-01T10:19:14;11.30;32.40
15879;DHT22;61999;51.514;14.614;2023-03-01T10:21:49;11.70;32.60
15879;DHT22;61999;51.514;14.614;2023-03-01T10:24:19;12.10;31.40
15879;DHT22;61999;51.514;14.614;2023-03-01T10:26:54;12.40;30.50
15879;DHT22;61999;51.514;14.614;2023-03-01T10:29:26;12.60;30.00
15879;DHT22;61999;51.514;14.614;2023-03-01T10:31:59;12.90;30.00
15879;DHT22;61999;51.514;14.614;2023-03-01T10:34:29;13.10;30.20
15879;DHT22;61999;51.514;14.614;2023-03-01T10:37:07;13.40;29.60
15879;DHT22;61999;51.514;14.614;2023-03-01T10:39:55;13.60;28.90
15879;DHT22;61999;51.514;14.614;2023-03-01T10:42:28;13.90;27.50
15879;DHT22;61999;51.514;14.614;2023-03-01T10:44:59;13.80;23.60
15879;DHT22;61999;51.514;14.614;2023-03-01T10:47:43;13.70;25.10
15879;DHT22;61999;51.514;14.614;2023-03-01T10:50:19;13.90;27.10
15879;DHT22;61999;51.514;14.614;2023-03-01T10:52:59;14.00;26.60
15879;DHT22;61999;51.514;14.614;2023-03-01T10:55:33;14.30;27.20
15879;DHT22;61999;51.514;14.614;2023-03-01T10:58:17;14.40;24.80
15879;DHT22;61999;51.514;14.614;2023-03-01T11:00:50;14.70;26.90
15879;DHT22;61999;51.514;14.614;2023-03-01T11:03:22;15.00;27.40
15879;DHT22;61999;51.514;14.614;2023-03-01T11:06:01;15.30;27.00
15879;DHT22;61999;51.514;14.614;2023-03-01T11:08:41;15.70;25.60
15879;DHT22;61999;51.514;14.614;2023-03-01T11:11:28;16.10;26.40
15879;DHT22;61999;51.514;14.614;2023-03-01T11:14:04;16.40;25.40
15879;DHT22;61999;51.514;14.614;2023-03-01T11:16:59;16.60;24.40
15879;DHT22;61999;51.514;14.614;2023-03-01T11:19:29;16.80;25.00
15879;DHT22;61999;51.514;14.614;2023-03-01T11:22:02;17.00;24.80
15879;DHT22;61999;51.514;14.614;2023-03-01T11:24:37;17.20;25.10
15879;DHT22;61999;51.514;14.614;2023-03-01T11:27:16;17.40;24.60
15879;DHT22;61999;51.514;14.614;2023-03-01T11:29:52;17.60;24.30
15879;DHT22;61999;51.514;14.614;2023-03-01T11:32:29;17.80;24.80
15879;DHT22;61999;51.514;14.614;2023-03-01T11:35:08;18.10;23.80
15879;DHT22;61999;51.514;14.614;2023-03-01T11:37:43;18.30;22.90
15879;DHT22;61999;51.514;14.614;2023-03-01T11:40:31;18.50;22.40
15879;DHT22;61999;51.514;14.614;2023-03-01T11:43:11;18.60;22.50
15879;DHT22;61999;51.514;14.614;2023-03-01T11:46:02;18.70;22.80
15879;DHT22;61999;51.514;14.614;2023-03-01T11:49:12;18.80;23.30
15879;DHT22;61999;51.514;14.614;2023-03-01T11:52:18;19.00;22.80
15879;DHT22;61999;51.514;14.614;2023-03-01T11:55:08;19.10;18.70
15879;DHT22;61999;51.514;14.614;2023-03-01T11:57:56;19.20;22.00
15879;DHT22;61999;51.514;14.614;2023-03-01T12:00:57;19.40;22.20
15879;DHT22;61999;51.514;14.614;2023-03-01T12:03:59;19.70;21.40
15879;DHT22;61999;51.514;14.614;2023-03-01T12:06:52;19.90;21.70
15879;DHT22;61999;51.514;14.614;2023-03-01T12:09:33;20.10;22.30
15879;DHT22;61999;51.514;14.614;2023-03-01T12:12:24;20.30;22.20
15879;DHT22;61999;51.514;14.614;2023-03-01T12:15:18;20.60;22.30
15879;DHT22;61999;51.514;14.614;2023-03-01T12:21:38;21.20;20.50
15879;DHT22;61999;51.514;14.614;2023-03-01T12:24:50;21.40;20.40
15879;DHT22;61999;51.514;14.614;2023-03-01T12:27:51;21.50;20.80
15879;DHT22;61999;51.514;14.614;2023-03-01T12:30:38;21.70;18.80
15879;DHT22;61999;51.514;14.614;2023-03-01T12:33:25;21.70;19.60
15879;DHT22;61999;51.514;14.614;2023-03-01T12:36:25;21.70;19.70
15879;DHT22;61999;51.514;14.614;2023-03-01T12:39:15;21.80;19.70
15879;DHT22;61999;51.514;14.614;2023-03-01T12:42:02;21.90;19.20
15879;DHT22;61999;51.514;14.614;2023-03-01T12:45:06;21.90;19.00
15879;DHT22;61999;51.514;14.614;2023-03-01T12:48:04;22.00;19.60
15879;DHT22;61999;51.514;14.614;2023-03-01T12:50:47;22.10;18.60
15879;DHT22;61999;51.514;14.614;2023-03-01T12:53:28;22.20;18.50
15879;DHT22;61999;51.514;14.614;2023-03-01T12:56:01;22.20;18.50
15879;DHT22;61999;51.514;14.614;2023-03-01T12:58:34;22.20;18.00
15879;DHT22;61999;51.514;14.614;2023-03-01T13:01:21;22.20;18.90
15879;DHT22;61999;51.514;14.614;2023-03-01T13:07:18;22.40;19.10
15879;DHT22;61999;51.514;14.614;2023-03-01T13:10:06;22.50;19.00
15879;DHT22;61999;51.514;14.614;2023-03-01T13:12:51;22.70;18.80
15879;DHT22;61999;51.514;14.614;2023-03-01T13:15:30;22.80;18.70
15879;DHT22;61999;51.514;14.614;2023-03-01T13:18:04;22.90;18.20
15879;DHT22;61999;51.514;14.614;2023-03-01T13:20:55;23.10;17.40
15879;DHT22;61999;51.514;14.614;2023-03-01T13:23:28;23.10;18.20
15879;DHT22;61999;51.514;14.614;2023-03-01T13:26:02;23.00;17.80
15879;DHT22;61999;51.514;14.614;2023-03-01T13:32:00;23.10;17.80
15879;DHT22;61999;51.514;14.614;2023-03-01T13:34:50;23.20;19.20
15879;DHT22;61999;51.514;14.614;2023-03-01T13:37:31;23.30;18.70
15879;DHT22;61999;51.514;14.614;2023-03-01T13:40:56;23.40;18.20
15879;DHT22;61999;51.514;14.614;2023-03-01T13:43:31;23.50;17.60
15879;DHT22;61999;51.514;14.614;2023-03-01T13:46:08;23.50;17.80
15879;DHT22;61999;51.514;14.614;2023-03-01T13:48:39;23.60;18.20
15879;DHT22;61999;51.514;14.614;2023-03-01T13:51:10;23.60;18.40
15879;DHT22;61999;51.514;14.614;2023-03-01T13:53:43;23.70;18.10
15879;DHT22;61999;51.514;14.614;2023-03-01T13:56:17;23.70;18.30
15879;DHT22;61999;51.514;14.614;2023-03-01T13:58:51;23.70;17.80
15879;DHT22;61999;51.514;14.614;2023-03-01T14:01:25;23.70;18.20
15879;DHT22;61999;51.514;14.614;2023-03-01T14:03:55;23.80;18.20
15879;DHT22;61999;51.514;14.614;2023-03-01T14:06:26;23.90;17.90
15879;DHT22;61999;51.514;14.614;2023-03-01T14:09:03;24.00;17.60
15879;DHT22;61999;51.514;14.614;2023-03-01T14:11:56;24.00;17.80
15879;DHT22;61999;51.514;14.614;2023-03-01T14:14:51;24.00;17.80
15879;DHT22;61999;51.514;14.614;2023-03-01T14:17:41;24.10;17.30
15879;DHT22;61999;51.514;14.614;2023-03-01T14:20:18;24.10;17.10
15879;DHT22;61999;51.514;14.614;2023-03-01T14:22:50;24.00;17.30
15879;DHT22;61999;51.514;14.614;2023-03-01T14:25:24;23.90;17.40
15879;DHT22;61999;51.514;14.614;2023-03-01T14:28:01;23.90;17.00
15879;DHT22;61999;51.514;14.614;2023-03-01T14:30:34;23.80;17.20
15879;DHT22;61999;51.514;14.614;2023-03-01T14:33:17;23.70;16.80
15879;DHT22;61999;51.514;14.614;2023-03-01T14:35:53;23.70;17.10
15879;DHT22;61999;51.514;14.614;2023-03-01T14:38:30;23.70;17.40
15879;DHT22;61999;51.514;14.614;2023-03-01T14:41:03;23.30;15.70
15879;DHT22;61999;51.514;14.614;2023-03-01T14:43:35;23.00;15.40
15879;DHT22;61999;51.514;14.614;2023-03-01T14:46:05;22.50;16.60
15879;DHT22;61999;51.514;14.614;2023-03-01T14:48:33;22.50;17.00
15879;DHT22;61999;51.514;14.614;2023-03-01T14:51:01;22.40;17.10
15879;DHT22;61999;51.514;14.614;2023-03-01T14:53:32;22.40;17.30
15879;DHT22;61999;51.514;14.614;2023-03-01T14:56:15;22.30;17.00
15879;DHT22;61999;51.514;14.614;2023-03-01T14:58:50;22.20;17.10
15879;DHT22;61999;51.514;14.614;2023-03-01T15:01:19;22.10;16.70
15879;DHT22;61999;51.514;14.614;2023-03-01T15:03:49;22.00;16.60
15879;DHT22;61999;51.514;14.614;2023-03-01T15:06:21;21.80;16.70
15879;DHT22;61999;51.514;14.614;2023-03-01T15:08:52;21.60;16.70
15879;DHT22;61999;51.514;14.614;2023-03-01T15:11:24;21.50;17.10
15879;DHT22;61999;51.514;14.614;2023-03-01T15:13:57;21.30;17.20
15879;DHT22;61999;51.514;14.614;2023-03-01T15:16:27;21.20;17.40
15879;DHT22;61999;51.514;14.614;2023-03-01T15:19:00;21.10;17.50
15879;DHT22;61999;51.514;14.614;2023-03-01T15:21:32;21.00;17.40
15879;DHT22;61999;51.514;14.614;2023-03-01T15:24:05;20.90;17.50
15879;DHT22;61999;51.514;14.614;2023-03-01T15:26:52;20.80;17.40
15879;DHT22;61999;51.514;14.614;2023-03-01T15:29:24;20.70;17.30
15879;DHT22;61999;51.514;14.614;2023-03-01T15:31:58;20.60;17.40
15879;DHT22;61999;51.514;14.614;2023-03-01T15:34:31;20.30;17.40
15879;DHT22;61999;51.514;14.614;2023-03-01T15:37:01;20.20;17.40
15879;DHT22;61999;51.514;14.614;2023-03-01T15:39:38;20.00;17.50
15879;DHT22;61999;51.514;14.614;2023-03-01T15:42:11;19.70;17.50
15879;DHT22;61999;51.514;14.614;2023-03-01T15:44:44;19.50;17.50
15879;DHT22;61999;51.514;14.614;2023-03-01T15:47:36;19.20;17.50
15879;DHT22;61999;51.514;14.614;2023-03-01T15:50:16;19.00;18.10
15879;DHT22;61999;51.514;14.614;2023-03-01T15:52:48;18.70;17.60
15879;DHT22;61999;51.514;14.614;2023-03-01T15:55:19;18.40;17.60
15879;DHT22;61999;51.514;14.614;2023-03-01T15:57:49;18.10;17.70
15879;DHT22;61999;51.514;14.614;2023-03-01T16:00:28;17.80;17.70
15879;DHT22;61999;51.514;14.614;2023-03-01T16:02:56;17.50;17.80
15879;DHT22;61999;51.514;14.614;2023-03-01T16:05:26;17.20;17.90
15879;DHT22;61999;51.514;14.614;2023-03-01T16:07:57;17.00;18.50